sensor_id;sensor_type;location;lat;lon;timestamp;P1;durP1;ratioP1;P2;durP2;ratioP2
12725;SDS011;6427;49.754;6.106;2022-11-20T00:00:43;7.55;;;5.05;;
12725;SDS011;6427;49.754;6.106;2022-11-20T00:03:12;5.87;;;4.37;;
12725;SDS011;6427;49.754;6.106;2022-11-20T00:05:40;6.80;;;3.97;;
12725;SDS011;6427;49.754;6.106;2022-11-20T00:08:11;6.90;;;4.30;;
12725;SDS011;6427;49.754;6.106;2022-11-20T00:10:39;6.37;;;4.10;;
12725;SDS011;6427;49.754;6.106;2022-11-20T00:13:09;5.93;;;4.43;;
12725;SDS011;6427;49.754;6.106;2022-11-20T00:15:37;8.73;;;5.83;;
12725;SDS011;6427;49.754;6.106;2022-11-20T00:18:06;7.53;;;5.90;;
12725;SDS011;6427;49.754;6.106;2022-11-20T00:20:34;8.87;;;5.40;;
12725;SDS011;6427;49.754;6.106;2022-11-20T00:23:03;8.50;;;5.93;;
12725;SDS011;6427;49.754;6.106;2022-11-20T00:25:35;6.10;;;4.27;;
12725;SDS011;6427;49.754;6.106;2022-11-20T00:28:03;9.03;;;5.17;;
12725;SDS011;6427;49.754;6.106;2022-11-20T00:30:33;6.87;;;5.57;;
12725;SDS011;6427;49.754;6.106;2022-11-20T00:33:03;6.30;;;4.93;;
12725;SDS011;6427;49.754;6.106;2022-11-20T00:35:31;6.95;;;5.60;;
12725;SDS011;6427;49.754;6.106;2022-11-20T00:37:59;9.00;;;4.80;;
12725;SDS011;6427;49.754;6.106;2022-11-20T00:40:27;7.30;;;5.33;;
12725;SDS011;6427;49.754;6.106;2022-11-20T00:42:58;8.83;;;5.60;;
12725;SDS011;6427;49.754;6.106;2022-11-20T00:45:29;6.70;;;4.17;;
12725;SDS011;6427;49.754;6.106;2022-11-20T00:47:57;6.23;;;4.10;;
12725;SDS011;6427;49.754;6.106;2022-11-20T00:50:25;5.63;;;4.10;;
12725;SDS011;6427;49.754;6.106;2022-11-20T00:52:52;7.93;;;4.40;;
12725;SDS011;6427;49.754;6.106;2022-11-20T00:55:21;6.57;;;5.28;;
12725;SDS011;6427;49.754;6.106;2022-11-20T00:57:49;7.50;;;4.43;;
12725;SDS011;6427;49.754;6.106;2022-11-20T01:00:20;6.37;;;4.30;;
12725;SDS011;6427;49.754;6.106;2022-11-20T01:02:44;5.67;;;4.33;;
12725;SDS011;6427;49.754;6.106;2022-11-20T01:05:13;7.30;;;4.87;;
12725;SDS011;6427;49.754;6.106;2022-11-20T01:07:41;6.37;;;4.60;;
12725;SDS011;6427;49.754;6.106;2022-11-20T01:10:09;5.47;;;3.87;;
12725;SDS011;6427;49.754;6.106;2022-11-20T01:12:37;7.93;;;5.90;;
12725;SDS011;6427;49.754;6.106;2022-11-20T01:15:06;5.53;;;4.53;;
12725;SDS011;6427;49.754;6.106;2022-11-20T01:17:36;5.70;;;4.23;;
12725;SDS011;6427;49.754;6.106;2022-11-20T01:20:03;8.47;;;5.60;;
12725;SDS011;6427;49.754;6.106;2022-11-20T01:22:31;8.10;;;5.87;;
12725;SDS011;6427;49.754;6.106;2022-11-20T01:24:59;8.25;;;5.80;;
12725;SDS011;6427;49.754;6.106;2022-11-20T01:27:27;7.50;;;5.93;;
12725;SDS011;6427;49.754;6.106;2022-11-20T01:29:54;8.93;;;5.63;;
12725;SDS011;6427;49.754;6.106;2022-11-20T01:32:22;9.43;;;4.93;;
12725;SDS011;6427;49.754;6.106;2022-11-20T01:34:49;6.30;;;4.47;;
12725;SDS011;6427;49.754;6.106;2022-11-20T01:37:17;8.73;;;5.03;;
12725;SDS011;6427;49.754;6.106;2022-11-20T01:39:45;6.00;;;5.00;;
12725;SDS011;6427;49.754;6.106;2022-11-20T01:42:12;6.60;;;4.67;;
12725;SDS011;6427;49.754;6.106;2022-11-20T01:44:59;6.85;;;5.80;;
12725;SDS011;6427;49.754;6.106;2022-11-20T01:50:18;6.50;;;4.90;;
12725;SDS011;6427;49.754;6.106;2022-11-20T01:52:56;8.03;;;4.90;;
12725;SDS011;6427;49.754;6.106;2022-11-20T01:55:25;7.37;;;4.27;;
12725;SDS011;6427;49.754;6.106;2022-11-20T01:57:51;5.80;;;4.50;;
12725;SDS011;6427;49.754;6.106;2022-11-20T02:00:19;7.18;;;5.10;;
12725;SDS011;6427;49.754;6.106;2022-11-20T02:02:51;5.78;;;4.85;;
12725;SDS011;6427;49.754;6.106;2022-11-20T02:07:51;7.87;;;3.70;;
12725;SDS011;6427;49.754;6.106;2022-11-20T02:10:21;4.73;;;3.30;;
12725;SDS011;6427;49.754;6.106;2022-11-20T02:12:51;5.60;;;4.30;;
12725;SDS011;6427;49.754;6.106;2022-11-20T02:15:35;5.90;;;5.22;;
12725;SDS011;6427;49.754;6.106;2022-11-20T02:18:02;6.23;;;4.63;;
12725;SDS011;6427;49.754;6.106;2022-11-20T02:20:31;4.83;;;3.87;;
12725;SDS011;6427;49.754;6.106;2022-11-20T02:23:08;6.63;;;3.90;;
12725;SDS011;6427;49.754;6.106;2022-11-20T02:25:37;4.90;;;3.90;;
12725;SDS011;6427;49.754;6.106;2022-11-20T02:28:09;5.70;;;3.83;;
12725;SDS011;6427;49.754;6.106;2022-11-20T02:30:38;5.18;;;4.45;;
12725;SDS011;6427;49.754;6.106;2022-11-20T02:33:06;7.30;;;3.30;;
12725;SDS011;6427;49.754;6.106;2022-11-20T02:35:39;7.33;;;3.53;;
12725;SDS011;6427;49.754;6.106;2022-11-20T02:38:09;4.37;;;3.47;;
12725;SDS011;6427;49.754;6.106;2022-11-20T02:40:40;5.03;;;3.43;;
12725;SDS011;6427;49.754;6.106;2022-11-20T02:43:08;4.82;;;4.30;;
12725;SDS011;6427;49.754;6.106;2022-11-20T02:45:42;3.97;;;3.57;;
12725;SDS011;6427;49.754;6.106;2022-11-20T02:48:10;3.50;;;3.20;;
12725;SDS011;6427;49.754;6.106;2022-11-20T02:50:37;5.87;;;3.13;;
12725;SDS011;6427;49.754;6.106;2022-11-20T02:53:05;8.40;;;3.43;;
12725;SDS011;6427;49.754;6.106;2022-11-20T02:55:32;5.30;;;3.92;;
12725;SDS011;6427;49.754;6.106;2022-11-20T02:58:00;3.67;;;3.23;;
12725;SDS011;6427;49.754;6.106;2022-11-20T03:00:27;4.17;;;3.23;;
12725;SDS011;6427;49.754;6.106;2022-11-20T03:02:55;4.13;;;3.10;;
12725;SDS011;6427;49.754;6.106;2022-11-20T03:05:23;3.37;;;2.90;;
12725;SDS011;6427;49.754;6.106;2022-11-20T03:07:51;6.10;;;3.30;;
12725;SDS011;6427;49.754;6.106;2022-11-20T03:10:19;3.73;;;2.87;;
12725;SDS011;6427;49.754;6.106;2022-11-20T03:12:46;2.93;;;2.60;;
12725;SDS011;6427;49.754;6.106;2022-11-20T03:15:14;4.13;;;2.80;;
12725;SDS011;6427;49.754;6.106;2022-11-20T03:17:43;3.40;;;2.60;;
12725;SDS011;6427;49.754;6.106;2022-11-20T03:20:13;4.00;;;2.90;;
12725;SDS011;6427;49.754;6.106;2022-11-20T03:22:40;4.60;;;3.70;;
12725;SDS011;6427;49.754;6.106;2022-11-20T03:25:10;5.05;;;3.12;;
12725;SDS011;6427;49.754;6.106;2022-11-20T03:27:38;4.35;;;3.10;;
12725;SDS011;6427;49.754;6.106;2022-11-20T03:30:12;3.00;;;2.70;;
12725;SDS011;6427;49.754;6.106;2022-11-20T03:32:36;2.17;;;1.90;;
12725;SDS011;6427;49.754;6.106;2022-11-20T03:35:05;3.30;;;2.90;;
12725;SDS011;6427;49.754;6.106;2022-11-20T03:37:42;3.40;;;2.30;;
12725;SDS011;6427;49.754;6.106;2022-11-20T03:40:11;2.87;;;2.57;;
12725;SDS011;6427;49.754;6.106;2022-11-20T03:42:43;2.30;;;1.90;;
12725;SDS011;6427;49.754;6.106;2022-11-20T03:45:16;3.20;;;2.13;;
12725;SDS011;6427;49.754;6.106;2022-11-20T03:47:51;4.10;;;2.47;;
12725;SDS011;6427;49.754;6.106;2022-11-20T03:50:18;3.23;;;2.93;;
12725;SDS011;6427;49.754;6.106;2022-11-20T03:52:46;4.70;;;4.07;;
12725;SDS011;6427;49.754;6.106;2022-11-20T03:55:14;6.68;;;4.78;;
12725;SDS011;6427;49.754;6.106;2022-11-20T03:57:44;5.70;;;4.30;;
12725;SDS011;6427;49.754;6.106;2022-11-20T04:00:12;5.87;;;4.63;;
12725;SDS011;6427;49.754;6.106;2022-11-20T04:02:39;7.50;;;5.13;;
12725;SDS011;6427;49.754;6.106;2022-11-20T04:05:07;7.57;;;5.03;;
12725;SDS011;6427;49.754;6.106;2022-11-20T04:07:35;5.80;;;4.77;;
12725;SDS011;6427;49.754;6.106;2022-11-20T04:10:03;7.40;;;5.20;;
12725;SDS011;6427;49.754;6.106;2022-11-20T04:12:34;5.73;;;4.17;;
12725;SDS011;6427;49.754;6.106;2022-11-20T04:15:01;7.67;;;4.77;;
12725;SDS011;6427;49.754;6.106;2022-11-20T04:17:29;7.30;;;5.85;;
12725;SDS011;6427;49.754;6.106;2022-11-20T04:19:56;8.53;;;5.67;;
12725;SDS011;6427;49.754;6.106;2022-11-20T04:22:25;9.07;;;6.03;;
12725;SDS011;6427;49.754;6.106;2022-11-20T04:24:56;7.53;;;5.37;;
12725;SDS011;6427;49.754;6.106;2022-11-20T04:27:24;6.80;;;5.13;;
12725;SDS011;6427;49.754;6.106;2022-11-20T04:29:53;6.93;;;5.23;;
12725;SDS011;6427;49.754;6.106;2022-11-20T04:32:26;6.70;;;5.13;;
12725;SDS011;6427;49.754;6.106;2022-11-20T04:34:55;8.55;;;7.07;;
12725;SDS011;6427;49.754;6.106;2022-11-20T04:37:22;7.23;;;6.00;;
12725;SDS011;6427;49.754;6.106;2022-11-20T04:39:57;9.83;;;5.97;;
12725;SDS011;6427;49.754;6.106;2022-11-20T04:42:25;9.00;;;7.18;;
12725;SDS011;6427;49.754;6.106;2022-11-20T04:44:55;8.73;;;6.07;;
12725;SDS011;6427;49.754;6.106;2022-11-20T04:47:22;9.03;;;6.60;;
12725;SDS011;6427;49.754;6.106;2022-11-20T04:49:50;8.40;;;5.90;;
12725;SDS011;6427;49.754;6.106;2022-11-20T04:52:17;7.43;;;5.70;;
12725;SDS011;6427;49.754;6.106;2022-11-20T04:54:45;9.43;;;6.67;;
12725;SDS011;6427;49.754;6.106;2022-11-20T04:57:13;11.43;;;8.25;;
12725;SDS011;6427;49.754;6.106;2022-11-20T04:59:41;11.27;;;7.03;;
12725;SDS011;6427;49.754;6.106;2022-11-20T05:02:09;9.97;;;7.40;;
12725;SDS011;6427;49.754;6.106;2022-11-20T05:04:37;11.13;;;7.70;;
12725;SDS011;6427;49.754;6.106;2022-11-20T05:07:04;11.30;;;7.70;;
12725;SDS011;6427;49.754;6.106;2022-11-20T05:09:32;12.63;;;8.23;;
12725;SDS011;6427;49.754;6.106;2022-11-20T05:11:59;10.80;;;7.70;;
12725;SDS011;6427;49.754;6.106;2022-11-20T05:14:27;12.57;;;8.10;;
12725;SDS011;6427;49.754;6.106;2022-11-20T05:16:54;12.77;;;9.98;;
12725;SDS011;6427;49.754;6.106;2022-11-20T05:19:22;11.90;;;8.63;;
12725;SDS011;6427;49.754;6.106;2022-11-20T05:21:50;12.03;;;8.67;;
12725;SDS011;6427;49.754;6.106;2022-11-20T05:24:17;12.33;;;8.30;;
12725;SDS011;6427;49.754;6.106;2022-11-20T05:26:45;11.13;;;7.50;;
12725;SDS011;6427;49.754;6.106;2022-11-20T05:29:12;11.97;;;8.27;;
12725;SDS011;6427;49.754;6.106;2022-11-20T05:31:40;11.70;;;7.83;;
12725;SDS011;6427;49.754;6.106;2022-11-20T05:34:07;12.17;;;8.63;;
12725;SDS011;6427;49.754;6.106;2022-11-20T05:36:36;13.33;;;8.93;;
12725;SDS011;6427;49.754;6.106;2022-11-20T05:39:03;12.87;;;7.97;;
12725;SDS011;6427;49.754;6.106;2022-11-20T05:41:32;12.37;;;8.17;;
12725;SDS011;6427;49.754;6.106;2022-11-20T05:43:58;14.87;;;10.70;;
12725;SDS011;6427;49.754;6.106;2022-11-20T05:46:26;12.77;;;9.23;;
12725;SDS011;6427;49.754;6.106;2022-11-20T05:48:53;15.10;;;8.43;;
12725;SDS011;6427;49.754;6.106;2022-11-20T05:51:22;11.60;;;8.07;;
12725;SDS011;6427;49.754;6.106;2022-11-20T05:53:48;14.87;;;11.12;;
12725;SDS011;6427;49.754;6.106;2022-11-20T05:56:17;13.57;;;9.40;;
12725;SDS011;6427;49.754;6.106;2022-11-20T05:58:45;14.60;;;9.20;;
12725;SDS011;6427;49.754;6.106;2022-11-20T06:01:14;13.93;;;8.77;;
12725;SDS011;6427;49.754;6.106;2022-11-20T06:03:46;14.00;;;9.63;;
12725;SDS011;6427;49.754;6.106;2022-11-20T06:06:15;13.03;;;8.83;;
12725;SDS011;6427;49.754;6.106;2022-11-20T06:08:42;14.97;;;10.03;;
12725;SDS011;6427;49.754;6.106;2022-11-20T06:11:10;12.57;;;8.20;;
12725;SDS011;6427;49.754;6.106;2022-11-20T06:13:37;13.33;;;8.87;;
12725;SDS011;6427;49.754;6.106;2022-11-20T06:16:05;15.13;;;9.53;;
12725;SDS011;6427;49.754;6.106;2022-11-20T06:18:33;12.80;;;8.97;;
12725;SDS011;6427;49.754;6.106;2022-11-20T06:21:01;13.97;;;8.87;;
12725;SDS011;6427;49.754;6.106;2022-11-20T06:23:29;16.43;;;9.47;;
12725;SDS011;6427;49.754;6.106;2022-11-20T06:26:06;14.47;;;8.77;;
12725;SDS011;6427;49.754;6.106;2022-11-20T06:28:32;14.93;;;9.63;;
12725;SDS011;6427;49.754;6.106;2022-11-20T06:30:59;14.90;;;9.43;;
12725;SDS011;6427;49.754;6.106;2022-11-20T06:33:28;15.83;;;9.57;;
12725;SDS011;6427;49.754;6.106;2022-11-20T06:35:57;15.10;;;9.13;;
12725;SDS011;6427;49.754;6.106;2022-11-20T06:38:24;15.50;;;9.67;;
12725;SDS011;6427;49.754;6.106;2022-11-20T06:40:52;18.60;;;9.07;;
12725;SDS011;6427;49.754;6.106;2022-11-20T06:43:21;14.03;;;8.97;;
12725;SDS011;6427;49.754;6.106;2022-11-20T06:45:53;15.02;;;11.12;;
12725;SDS011;6427;49.754;6.106;2022-11-20T06:48:21;12.20;;;8.87;;
12725;SDS011;6427;49.754;6.106;2022-11-20T06:50:48;14.17;;;8.60;;
12725;SDS011;6427;49.754;6.106;2022-11-20T06:53:16;13.77;;;9.60;;
12725;SDS011;6427;49.754;6.106;2022-11-20T06:55:44;10.93;;;8.07;;
12725;SDS011;6427;49.754;6.106;2022-11-20T06:58:14;12.60;;;8.23;;
12725;SDS011;6427;49.754;6.106;2022-11-20T07:00:42;11.27;;;7.70;;
12725;SDS011;6427;49.754;6.106;2022-11-20T07:03:10;11.27;;;7.53;;
12725;SDS011;6427;49.754;6.106;2022-11-20T07:05:37;12.17;;;7.80;;
12725;SDS011;6427;49.754;6.106;2022-11-20T07:08:05;12.13;;;7.67;;
12725;SDS011;6427;49.754;6.106;2022-11-20T07:10:33;10.90;;;6.80;;
12725;SDS011;6427;49.754;6.106;2022-11-20T07:13:00;10.80;;;6.90;;
12725;SDS011;6427;49.754;6.106;2022-11-20T07:15:28;12.90;;;8.80;;
12725;SDS011;6427;49.754;6.106;2022-11-20T07:17:57;12.23;;;8.27;;
12725;SDS011;6427;49.754;6.106;2022-11-20T07:20:23;12.10;;;8.27;;
12725;SDS011;6427;49.754;6.106;2022-11-20T07:22:55;11.83;;;7.80;;
12725;SDS011;6427;49.754;6.106;2022-11-20T07:25:22;12.17;;;7.77;;
12725;SDS011;6427;49.754;6.106;2022-11-20T07:27:50;10.77;;;7.27;;
12725;SDS011;6427;49.754;6.106;2022-11-20T07:30:17;13.77;;;9.75;;
12725;SDS011;6427;49.754;6.106;2022-11-20T07:32:50;14.47;;;8.60;;
12725;SDS011;6427;49.754;6.106;2022-11-20T07:35:15;16.03;;;8.40;;
12725;SDS011;6427;49.754;6.106;2022-11-20T07:37:43;14.17;;;7.53;;
12725;SDS011;6427;49.754;6.106;2022-11-20T07:40:15;12.87;;;7.50;;
12725;SDS011;6427;49.754;6.106;2022-11-20T07:42:39;11.93;;;7.97;;
12725;SDS011;6427;49.754;6.106;2022-11-20T07:45:06;11.70;;;7.50;;
12725;SDS011;6427;49.754;6.106;2022-11-20T07:47:35;11.37;;;7.67;;
12725;SDS011;6427;49.754;6.106;2022-11-20T07:50:02;12.93;;;7.97;;
12725;SDS011;6427;49.754;6.106;2022-11-20T07:52:30;11.53;;;7.27;;
12725;SDS011;6427;49.754;6.106;2022-11-20T07:54:58;10.57;;;7.03;;
12725;SDS011;6427;49.754;6.106;2022-11-20T07:57:26;11.63;;;7.20;;
12725;SDS011;6427;49.754;6.106;2022-11-20T07:59:53;12.98;;;8.93;;
12725;SDS011;6427;49.754;6.106;2022-11-20T08:02:21;10.17;;;7.27;;
12725;SDS011;6427;49.754;6.106;2022-11-20T08:04:49;9.70;;;6.70;;
12725;SDS011;6427;49.754;6.106;2022-11-20T08:07:17;8.40;;;5.63;;
12725;SDS011;6427;49.754;6.106;2022-11-20T08:09:44;8.90;;;6.27;;
12725;SDS011;6427;49.754;6.106;2022-11-20T08:12:19;10.10;;;6.55;;
12725;SDS011;6427;49.754;6.106;2022-11-20T08:15:04;5.80;;;4.27;;
12725;SDS011;6427;49.754;6.106;2022-11-20T08:17:32;11.67;;;6.03;;
12725;SDS011;6427;49.754;6.106;2022-11-20T08:19:59;6.90;;;5.80;;
12725;SDS011;6427;49.754;6.106;2022-11-20T08:22:27;4.60;;;4.15;;
12725;SDS011;6427;49.754;6.106;2022-11-20T08:24:55;3.97;;;3.53;;
12725;SDS011;6427;49.754;6.106;2022-11-20T08:27:22;5.47;;;3.10;;
12725;SDS011;6427;49.754;6.106;2022-11-20T08:29:50;7.67;;;3.10;;
12725;SDS011;6427;49.754;6.106;2022-11-20T08:32:18;4.20;;;2.97;;
12725;SDS011;6427;49.754;6.106;2022-11-20T08:34:45;3.93;;;2.63;;
12725;SDS011;6427;49.754;6.106;2022-11-20T08:37:14;4.73;;;2.50;;
12725;SDS011;6427;49.754;6.106;2022-11-20T08:39:41;3.33;;;2.77;;
12725;SDS011;6427;49.754;6.106;2022-11-20T08:42:09;4.57;;;2.93;;
12725;SDS011;6427;49.754;6.106;2022-11-20T08:44:36;7.90;;;2.83;;
12725;SDS011;6427;49.754;6.106;2022-11-20T08:47:04;5.33;;;2.90;;
12725;SDS011;6427;49.754;6.106;2022-11-20T08:49:32;7.85;;;3.80;;
12725;SDS011;6427;49.754;6.106;2022-11-20T08:52:00;6.87;;;3.67;;
12725;SDS011;6427;49.754;6.106;2022-11-20T08:54:27;8.77;;;3.70;;
12725;SDS011;6427;49.754;6.106;2022-11-20T08:56:55;7.20;;;4.55;;
12725;SDS011;6427;49.754;6.106;2022-11-20T08:59:22;6.62;;;4.35;;
12725;SDS011;6427;49.754;6.106;2022-11-20T09:01:50;4.63;;;3.27;;
12725;SDS011;6427;49.754;6.106;2022-11-20T09:04:17;5.87;;;3.87;;
12725;SDS011;6427;49.754;6.106;2022-11-20T09:06:45;7.37;;;3.80;;
12725;SDS011;6427;49.754;6.106;2022-11-20T09:09:12;8.97;;;3.47;;
12725;SDS011;6427;49.754;6.106;2022-11-20T09:11:40;10.70;;;4.43;;
12725;SDS011;6427;49.754;6.106;2022-11-20T09:14:08;10.23;;;3.93;;
12725;SDS011;6427;49.754;6.106;2022-11-20T09:16:36;5.03;;;2.80;;
12725;SDS011;6427;49.754;6.106;2022-11-20T09:19:03;8.93;;;3.80;;
12725;SDS011;6427;49.754;6.106;2022-11-20T09:21:31;10.43;;;6.33;;
12725;SDS011;6427;49.754;6.106;2022-11-20T09:23:59;6.77;;;3.47;;
12725;SDS011;6427;49.754;6.106;2022-11-20T09:26:26;9.17;;;3.33;;
12725;SDS011;6427;49.754;6.106;2022-11-20T09:28:54;4.90;;;3.10;;
12725;SDS011;6427;49.754;6.106;2022-11-20T09:31:22;7.00;;;3.40;;
12725;SDS011;6427;49.754;6.106;2022-11-20T09:33:49;5.80;;;3.70;;
12725;SDS011;6427;49.754;6.106;2022-11-20T09:36:16;4.77;;;3.27;;
12725;SDS011;6427;49.754;6.106;2022-11-20T09:38:45;8.73;;;4.22;;
12725;SDS011;6427;49.754;6.106;2022-11-20T09:41:25;6.03;;;3.80;;
12725;SDS011;6427;49.754;6.106;2022-11-20T09:44:04;7.55;;;3.80;;
12725;SDS011;6427;49.754;6.106;2022-11-20T09:55:04;7.73;;;4.53;;
12725;SDS011;6427;49.754;6.106;2022-11-20T09:57:34;7.17;;;3.67;;
12725;SDS011;6427;49.754;6.106;2022-11-20T10:00:04;8.20;;;3.20;;
12725;SDS011;6427;49.754;6.106;2022-11-20T10:02:34;3.87;;;2.10;;
12725;SDS011;6427;49.754;6.106;2022-11-20T10:13:46;6.70;;;2.80;;
12725;SDS011;6427;49.754;6.106;2022-11-20T10:22:49;10.57;;;2.70;;
12725;SDS011;6427;49.754;6.106;2022-11-20T10:24:43;5.67;;;2.50;;
12725;SDS011;6427;49.754;6.106;2022-11-20T10:30:02;4.00;;;2.50;;
12725;SDS011;6427;49.754;6.106;2022-11-20T10:32:34;6.73;;;3.40;;
12725;SDS011;6427;49.754;6.106;2022-11-20T10:34:58;8.50;;;3.50;;
12725;SDS011;6427;49.754;6.106;2022-11-20T10:37:31;6.22;;;3.33;;
12725;SDS011;6427;49.754;6.106;2022-11-20T10:42:40;6.10;;;3.00;;
12725;SDS011;6427;49.754;6.106;2022-11-20T10:47:42;7.10;;;2.50;;
12725;SDS011;6427;49.754;6.106;2022-11-20T10:50:11;5.37;;;2.60;;
12725;SDS011;6427;49.754;6.106;2022-11-20T10:53:02;4.70;;;2.83;;
12725;SDS011;6427;49.754;6.106;2022-11-20T10:58:14;4.47;;;2.27;;
12725;SDS011;6427;49.754;6.106;2022-11-20T11:00:43;7.33;;;2.70;;
12725;SDS011;6427;49.754;6.106;2022-11-20T11:03:26;8.77;;;4.13;;
12725;SDS011;6427;49.754;6.106;2022-11-20T11:06:02;6.53;;;3.30;;
12725;SDS011;6427;49.754;6.106;2022-11-20T11:08:40;5.90;;;2.60;;
12725;SDS011;6427;49.754;6.106;2022-11-20T11:11:13;5.93;;;3.00;;
12725;SDS011;6427;49.754;6.106;2022-11-20T11:13:50;9.60;;;2.70;;
12725;SDS011;6427;49.754;6.106;2022-11-20T11:16:27;6.60;;;2.10;;
12725;SDS011;6427;49.754;6.106;2022-11-20T11:18:50;3.17;;;2.50;;
12725;SDS011;6427;49.754;6.106;2022-11-20T11:21:21;2.87;;;2.00;;
12725;SDS011;6427;49.754;6.106;2022-11-20T11:23:48;4.53;;;2.40;;
12725;SDS011;6427;49.754;6.106;2022-11-20T11:26:19;4.83;;;1.90;;
12725;SDS011;6427;49.754;6.106;2022-11-20T11:28:56;2.33;;;1.60;;
12725;SDS011;6427;49.754;6.106;2022-11-20T11:31:30;7.50;;;2.37;;
12725;SDS011;6427;49.754;6.106;2022-11-20T11:34:07;7.60;;;2.17;;
12725;SDS011;6427;49.754;6.106;2022-11-20T11:36:34;6.43;;;2.07;;
12725;SDS011;6427;49.754;6.106;2022-11-20T11:39:01;3.93;;;1.90;;
12725;SDS011;6427;49.754;6.106;2022-11-20T11:41:30;4.93;;;1.97;;
12725;SDS011;6427;49.754;6.106;2022-11-20T11:43:58;4.70;;;1.87;;
12725;SDS011;6427;49.754;6.106;2022-11-20T11:46:54;6.65;;;2.35;;
12725;SDS011;6427;49.754;6.106;2022-11-20T11:49:21;7.70;;;2.20;;
12725;SDS011;6427;49.754;6.106;2022-11-20T11:57:23;3.57;;;1.97;;
12725;SDS011;6427;49.754;6.106;2022-11-20T11:59:59;6.13;;;2.33;;
12725;SDS011;6427;49.754;6.106;2022-11-20T12:02:32;6.70;;;2.13;;
12725;SDS011;6427;49.754;6.106;2022-11-20T12:05:03;6.35;;;2.53;;
12725;SDS011;6427;49.754;6.106;2022-11-20T12:07:39;9.23;;;2.77;;
12725;SDS011;6427;49.754;6.106;2022-11-20T12:10:19;5.30;;;1.57;;
12725;SDS011;6427;49.754;6.106;2022-11-20T12:12:42;6.32;;;2.25;;
12725;SDS011;6427;49.754;6.106;2022-11-20T12:15:13;3.20;;;1.60;;
12725;SDS011;6427;49.754;6.106;2022-11-20T12:17:40;4.53;;;2.10;;
12725;SDS011;6427;49.754;6.106;2022-11-20T12:20:12;9.13;;;1.80;;
12725;SDS011;6427;49.754;6.106;2022-11-20T12:25:27;8.43;;;1.90;;
12725;SDS011;6427;49.754;6.106;2022-11-20T12:30:50;3.83;;;1.33;;
12725;SDS011;6427;49.754;6.106;2022-11-20T12:50:37;3.00;;;1.03;;
12725;SDS011;6427;49.754;6.106;2022-11-20T12:53:11;6.70;;;1.77;;
12725;SDS011;6427;49.754;6.106;2022-11-20T13:01:20;2.87;;;1.40;;
12725;SDS011;6427;49.754;6.106;2022-11-20T13:03:43;5.03;;;1.33;;
12725;SDS011;6427;49.754;6.106;2022-11-20T13:06:15;2.53;;;1.27;;
12725;SDS011;6427;49.754;6.106;2022-11-20T13:08:42;5.00;;;1.37;;
12725;SDS011;6427;49.754;6.106;2022-11-20T13:11:13;5.43;;;1.20;;
12725;SDS011;6427;49.754;6.106;2022-11-20T13:13:45;3.27;;;1.43;;
12725;SDS011;6427;49.754;6.106;2022-11-20T13:16:16;3.63;;;1.00;;
12725;SDS011;6427;49.754;6.106;2022-11-20T13:18:41;9.90;;;1.50;;
12725;SDS011;6427;49.754;6.106;2022-11-20T13:21:16;7.07;;;2.07;;
12725;SDS011;6427;49.754;6.106;2022-11-20T13:23:45;6.47;;;2.55;;
12725;SDS011;6427;49.754;6.106;2022-11-20T13:26:18;5.07;;;3.00;;
12725;SDS011;6427;49.754;6.106;2022-11-20T13:28:47;4.60;;;2.10;;
12725;SDS011;6427;49.754;6.106;2022-11-20T13:31:33;3.87;;;1.60;;
12725;SDS011;6427;49.754;6.106;2022-11-20T13:34:00;5.50;;;1.40;;
12725;SDS011;6427;49.754;6.106;2022-11-20T13:36:28;3.93;;;1.47;;
12725;SDS011;6427;49.754;6.106;2022-11-20T13:38:55;3.63;;;1.40;;
12725;SDS011;6427;49.754;6.106;2022-11-20T13:41:30;2.53;;;1.30;;
12725;SDS011;6427;49.754;6.106;2022-11-20T13:44:05;2.80;;;1.80;;
12725;SDS011;6427;49.754;6.106;2022-11-20T13:46:41;4.65;;;1.77;;
12725;SDS011;6427;49.754;6.106;2022-11-20T13:49:14;3.33;;;1.70;;
12725;SDS011;6427;49.754;6.106;2022-11-20T13:51:44;3.97;;;1.77;;
12725;SDS011;6427;49.754;6.106;2022-11-20T13:54:15;6.30;;;1.63;;
12725;SDS011;6427;49.754;6.106;2022-11-20T14:02:10;7.33;;;1.87;;
12725;SDS011;6427;49.754;6.106;2022-11-20T14:04:42;5.07;;;1.87;;
12725;SDS011;6427;49.754;6.106;2022-11-20T14:07:07;2.17;;;1.37;;
12725;SDS011;6427;49.754;6.106;2022-11-20T14:09:35;7.20;;;2.13;;
12725;SDS011;6427;49.754;6.106;2022-11-20T14:12:03;10.48;;;3.05;;
12725;SDS011;6427;49.754;6.106;2022-11-20T14:14:31;8.07;;;2.73;;
12725;SDS011;6427;49.754;6.106;2022-11-20T14:17:07;4.00;;;1.53;;
12725;SDS011;6427;49.754;6.106;2022-11-20T14:19:35;3.30;;;1.77;;
12725;SDS011;6427;49.754;6.106;2022-11-20T14:22:17;3.27;;;1.40;;
12725;SDS011;6427;49.754;6.106;2022-11-20T14:24:46;5.37;;;2.00;;
12725;SDS011;6427;49.754;6.106;2022-11-20T14:27:14;4.43;;;1.58;;
12725;SDS011;6427;49.754;6.106;2022-11-20T14:29:44;6.70;;;1.33;;
12725;SDS011;6427;49.754;6.106;2022-11-20T14:32:11;3.90;;;1.50;;
12725;SDS011;6427;49.754;6.106;2022-11-20T14:34:39;1.87;;;1.30;;
12725;SDS011;6427;49.754;6.106;2022-11-20T14:37:09;6.13;;;1.60;;
12725;SDS011;6427;49.754;6.106;2022-11-20T14:39:41;5.17;;;2.10;;
12725;SDS011;6427;49.754;6.106;2022-11-20T14:42:19;5.13;;;1.67;;
12725;SDS011;6427;49.754;6.106;2022-11-20T14:44:42;3.37;;;1.43;;
12725;SDS011;6427;49.754;6.106;2022-11-20T14:47:11;7.73;;;2.53;;
12725;SDS011;6427;49.754;6.106;2022-11-20T14:49:40;5.47;;;2.17;;
12725;SDS011;6427;49.754;6.106;2022-11-20T14:54:48;7.87;;;2.10;;
12725;SDS011;6427;49.754;6.106;2022-11-20T14:57:32;6.53;;;1.90;;
12725;SDS011;6427;49.754;6.106;2022-11-20T15:02:43;3.83;;;1.33;;
12725;SDS011;6427;49.754;6.106;2022-11-20T15:05:11;4.73;;;2.30;;
12725;SDS011;6427;49.754;6.106;2022-11-20T15:07:40;7.50;;;2.00;;
12725;SDS011;6427;49.754;6.106;2022-11-20T15:10:10;3.50;;;1.63;;
12725;SDS011;6427;49.754;6.106;2022-11-20T15:12:40;3.50;;;2.20;;
12725;SDS011;6427;49.754;6.106;2022-11-20T15:15:14;5.07;;;1.80;;
12725;SDS011;6427;49.754;6.106;2022-11-20T15:17:40;4.30;;;2.47;;
12725;SDS011;6427;49.754;6.106;2022-11-20T15:20:14;4.60;;;2.72;;
12725;SDS011;6427;49.754;6.106;2022-11-20T15:22:41;4.00;;;2.33;;
12725;SDS011;6427;49.754;6.106;2022-11-20T15:25:13;3.27;;;1.73;;
12725;SDS011;6427;49.754;6.106;2022-11-20T15:27:40;4.10;;;1.97;;
12725;SDS011;6427;49.754;6.106;2022-11-20T15:30:11;4.17;;;2.43;;
12725;SDS011;6427;49.754;6.106;2022-11-20T15:32:41;6.10;;;1.77;;
12725;SDS011;6427;49.754;6.106;2022-11-20T15:35:09;5.60;;;1.70;;
12725;SDS011;6427;49.754;6.106;2022-11-20T15:37:36;4.63;;;2.50;;
12725;SDS011;6427;49.754;6.106;2022-11-20T15:40:04;5.43;;;2.27;;
12725;SDS011;6427;49.754;6.106;2022-11-20T15:42:32;2.90;;;1.77;;
12725;SDS011;6427;49.754;6.106;2022-11-20T15:44:59;3.77;;;1.60;;
12725;SDS011;6427;49.754;6.106;2022-11-20T15:47:31;2.93;;;1.40;;
12725;SDS011;6427;49.754;6.106;2022-11-20T15:49:57;2.90;;;1.33;;
12725;SDS011;6427;49.754;6.106;2022-11-20T15:52:25;3.93;;;1.70;;
12725;SDS011;6427;49.754;6.106;2022-11-20T15:54:53;2.07;;;1.30;;
12725;SDS011;6427;49.754;6.106;2022-11-20T15:57:20;2.95;;;1.40;;
12725;SDS011;6427;49.754;6.106;2022-11-20T15:59:48;3.65;;;1.42;;
12725;SDS011;6427;49.754;6.106;2022-11-20T16:02:15;2.90;;;1.35;;
12725;SDS011;6427;49.754;6.106;2022-11-20T16:04:43;3.47;;;1.33;;
12725;SDS011;6427;49.754;6.106;2022-11-20T16:07:10;3.40;;;1.33;;
12725;SDS011;6427;49.754;6.106;2022-11-20T16:09:38;84.13;;;6.73;;
12725;SDS011;6427;49.754;6.106;2022-11-20T16:12:07;2.60;;;1.17;;
12725;SDS011;6427;49.754;6.106;2022-11-20T16:14:33;2.07;;;1.30;;
12725;SDS011;6427;49.754;6.106;2022-11-20T16:17:04;2.90;;;1.60;;
12725;SDS011;6427;49.754;6.106;2022-11-20T16:19:31;3.67;;;1.98;;
12725;SDS011;6427;49.754;6.106;2022-11-20T16:21:59;1.47;;;1.03;;
12725;SDS011;6427;49.754;6.106;2022-11-20T16:24:29;2.90;;;1.00;;
12725;SDS011;6427;49.754;6.106;2022-11-20T16:26:57;3.20;;;1.23;;
12725;SDS011;6427;49.754;6.106;2022-11-20T16:29:24;1.97;;;1.77;;
12725;SDS011;6427;49.754;6.106;2022-11-20T16:31:52;4.00;;;2.10;;
12725;SDS011;6427;49.754;6.106;2022-11-20T16:34:20;3.33;;;2.10;;